Time;durP1;ratioP1;P1;durP2;ratioP2;P2;SDS_P1;SDS_P2;PMS_P1;PMS_P2;Temp;Humidity;BMP_temperature;BMP_pressure;BME280_temperature;BME280_humidity;BME280_pressure;Samples;Min_cycle;Max_cycle;Signal;HPM_P1;HPM_P2
2022/03/14 00:01:30;;;;;;;22.60;10.73;;;7.40;73.90;;;;;;5090655;28;20170;-70
2022/03/14 00:03:58;;;;;;;23.75;9.98;;;7.40;73.10;;;;;;5090358;28;20038;-69
2022/03/14 00:06:27;;;;;;;15.07;8.63;;;7.50;75.30;;;;;;5094437;28;20056;-71
2022/03/14 00:08:57;;;;;;;18.15;9.55;;;7.40;76.10;;;;;;5088709;28;20139;-69
2022/03/14 00:11:26;;;;;;;19.15;10.48;;;7.40;78.10;;;;;;5087091;28;20479;-70
2022/03/14 00:13:54;;;;;;;21.58;10.52;;;7.30;83.30;;;;;;5088532;28;20033;-70
2022/03/14 00:16:25;;;;;;;22.08;10.98;;;7.20;83.90;;;;;;5091975;28;20044;-70
2022/03/14 00:18:53;;;;;;;19.27;10.95;;;7.10;84.10;;;;;;5077663;28;20118;-70
2022/03/14 00:21:21;;;;;;;17.45;10.68;;;7.10;88.10;;;;;;5076748;28;20044;-70
2022/03/14 00:23:46;;;;;;;16.83;9.15;;;7.00;87.60;;;;;;5084273;28;20051;-69
2022/03/14 00:26:12;;;;;;;;;;;6.90;85.20;;;;;;5086070;28;20044;-70
2022/03/14 00:28:38;;;;;;;16.90;9.25;;;6.90;84.80;;;;;;5080968;28;20411;-70
2022/03/14 00:31:03;;;;;;;18.65;9.88;;;6.90;84.10;;;;;;5077580;28;20154;-70
2022/03/14 00:33:29;;;;;;;;;;;6.90;84.10;;;;;;5067792;28;20388;-70
2022/03/14 00:35:56;;;;;;;19.95;8.00;;;7.00;83.90;;;;;;5077108;28;19980;-70
2022/03/14 00:38:24;;;;;;;14.60;7.93;;;7.00;83.70;;;;;;5084240;28;20044;-70
2022/03/14 00:40:50;;;;;;;17.08;9.07;;;7.10;82.80;;;;;;5085882;28;20434;-69
2022/03/14 00:43:15;;;;;;;16.77;9.45;;;7.00;87.20;;;;;;5087402;28;20396;-69
2022/03/14 00:45:41;;;;;;;;;;;7.00;82.30;;;;;;5083538;28;20056;-69
2022/03/14 00:48:07;;;;;;;15.23;8.65;;;7.10;85.90;;;;;;5075149;28;19926;-70
2022/03/14 00:50:33;;;;;;;16.05;9.23;;;7.00;86.00;;;;;;5077512;28;20116;-69
2022/03/14 00:52:58;;;;;;;;;;;7.10;82.90;;;;;;5086073;28;20115;-68
2022/03/14 00:55:24;;;;;;;17.13;9.10;;;7.10;82.90;;;;;;5083843;28;19961;-68
2022/03/14 00:57:49;;;;;;;;;;;7.10;82.70;;;;;;5086935;28;20523;-68
2022/03/14 01:00:15;;;;;;;14.15;7.82;;;7.10;82.10;;;;;;5086659;28;19916;-69
2022/03/14 01:02:41;;;;;;;;;;;7.10;79.60;;;;;;5086585;28;20150;-68
2022/03/14 01:05:06;;;;;;;12.52;7.63;;;7.20;78.10;;;;;;5085231;28;19923;-68
2022/03/14 01:07:34;;;;;;;;;;;7.20;78.90;;;;;;5085960;28;20147;-68
2022/03/14 01:10:01;;;;;;;14.73;8.30;;;7.20;79.30;;;;;;5085504;28;20295;-68
2022/03/14 01:12:26;;;;;;;15.55;8.40;;;7.20;80.50;;;;;;5086302;28;20040;-68
2022/03/14 01:14:52;;;;;;;;;;;7.20;78.30;;;;;;5086733;28;20040;-69
2022/03/14 01:17:17;;;;;;;14.45;7.13;;;7.30;77.60;;;;;;5085665;28;19928;-68
2022/03/14 01:19:43;;;;;;;14.77;8.75;;;7.30;79.30;;;;;;5086324;28;20056;-68
2022/03/14 01:22:10;;;;;;;;;;;7.30;77.90;;;;;;5085813;28;20036;-68
2022/03/14 01:24:38;;;;;;;15.13;7.80;;;7.30;82.50;;;;;;5084800;28;19961;-69
2022/03/14 01:27:07;;;;;;;14.10;7.82;;;7.30;77.70;;;;;;5085282;28;20086;-68
2022/03/14 01:29:34;;;;;;;13.82;8.38;;;7.30;77.90;;;;;;5085273;28;20063;-68
2022/03/14 01:32:01;;;;;;;27.65;9.40;;;7.30;77.70;;;;;;5086702;28;20036;-68
2022/03/14 01:34:26;;;;;;;13.02;7.95;;;7.40;76.30;;;;;;5087203;28;20050;-68
2022/03/14 01:36:52;;;;;;;;;;;7.40;75.40;;;;;;5083889;28;20364;-68
2022/03/14 01:39:18;;;;;;;15.73;8.13;;;7.40;76.70;;;;;;5083709;28;20403;-68
2022/03/14 01:41:44;;;;;;;14.63;8.05;;;7.40;76.60;;;;;;5086491;28;20032;-68
2022/03/14 01:44:09;;;;;;;;;;;7.50;74.90;;;;;;5085737;28;20040;-68
2022/03/14 01:46:35;;;;;;;15.23;7.88;;;7.40;77.00;;;;;;5085026;28;19963;-69
2022/03/14 01:49:01;;;;;;;16.65;8.90;;;7.40;77.90;;;;;;5083723;28;20420;-70
2022/03/14 01:51:26;;;;;;;;;;;7.50;76.70;;;;;;5085744;28;20438;-70
2022/03/14 01:53:53;;;;;;;18.38;7.43;;;7.50;74.60;;;;;;5084694;28;19923;-70
2022/03/14 01:56:20;;;;;;;14.05;7.97;;;7.50;75.90;;;;;;5084708;28;20115;-69
2022/03/14 01:58:46;;;;;;;13.82;7.78;;;7.50;75.60;;;;;;5085367;28;20527;-70
2022/03/14 02:01:13;;;;;;;15.43;7.80;;;7.50;76.00;;;;;;5084501;28;20036;-70
2022/03/14 02:03:38;;;;;;;14.18;8.38;;;7.60;75.30;;;;;;5076798;28;20089;-70
2022/03/14 02:06:04;;;;;;;;;;;7.60;71.60;;;;;;5077590;28;20040;-67
2022/03/14 02:08:29;;;;;;;15.48;8.20;;;7.70;76.30;;;;;;5072912;28;19959;-70
2022/03/14 02:10:55;;;;;;;;;;;7.70;75.60;;;;;;5076842;28;20122;-68
2022/03/14 02:13:21;;;;;;;24.25;9.05;;;7.70;75.70;;;;;;5069629;28;19920;-69
2022/03/14 02:15:47;;;;;;;21.08;8.95;;;7.60;78.00;;;;;;5061533;28;20086;-68
2022/03/14 02:18:12;;;;;;;;;;;7.60;80.00;;;;;;5081238;28;20043;-68
2022/03/14 02:20:38;;;;;;;20.48;10.52;;;7.60;79.30;;;;;;5084027;28;19969;-68
2022/03/14 02:23:04;;;;;;;;;;;7.60;80.30;;;;;;5083220;28;20036;-68
2022/03/14 02:25:34;;;;;;;20.17;10.45;;;7.60;81.80;;;;;;5084250;28;19916;-68
2022/03/14 02:28:00;;;;;;;19.35;10.27;;;7.60;81.30;;;;;;5083461;28;20079;-69
2022/03/14 02:30:25;;;;;;;;;;;7.50;87.50;;;;;;5085152;28;20098;-68
2022/03/14 02:32:51;;;;;;;17.35;9.45;;;7.40;92.60;;;;;;5076558;28;19916;-68
2022/03/14 02:35:17;;;;;;;;;;;7.30;90.60;;;;;;5080010;28;20059;-68
2022/03/14 02:37:44;;;;;;;19.35;10.80;;;7.40;92.00;;;;;;5080159;28;19942;-68
2022/03/14 02:40:10;;;;;;;19.92;10.73;;;7.30;94.20;;;;;;5083819;28;20043;-68
2022/03/14 02:42:36;;;;;;;20.70;9.68;;;7.20;96.00;;;;;;5082798;28;20104;-69
2022/03/14 02:45:04;;;;;;;18.25;10.38;;;7.20;97.90;;;;;;5083874;28;20038;-68
2022/03/14 02:47:30;;;;;;;17.25;10.00;;;7.10;99.00;;;;;;5084799;28;20040;-68
2022/03/14 02:49:55;;;;;;;;;;;7.10;99.90;;;;;;5083571;28;20039;-68
2022/03/14 02:52:21;;;;;;;22.35;11.02;;;7.10;99.90;;;;;;5075479;28;20484;-68
2022/03/14 02:54:46;;;;;;;;;;;7.10;99.90;;;;;;5078309;28;20431;-69
2022/03/14 02:57:12;;;;;;;;;;;7.00;99.90;;;;;;5083957;28;20000;-69
2022/03/14 02:59:37;;;;;;;;;;;7.00;99.90;;;;;;5085428;28;20057;-68
2022/03/14 03:02:03;;;;;;;;;;;7.00;99.90;;;;;;5083900;28;19970;-69
2022/03/14 03:04:28;;;;;;;;;;;7.00;99.90;;;;;;5084395;28;19927;-68
2022/03/14 03:06:54;;;;;;;;;;;7.00;99.90;;;;;;5082004;28;20631;-70
2022/03/14 03:09:20;;;;;;;;;;;7.00;99.90;;;;;;5077950;28;20563;-68
2022/03/14 03:11:46;;;;;;;;;;;6.90;99.90;;;;;;5083956;28;19916;-69
2022/03/14 03:14:12;;;;;;;;;;;7.00;99.90;;;;;;5083935;28;19920;-68
2022/03/14 03:16:38;;;;;;;;;;;6.90;99.90;;;;;;5085016;28;19920;-69
2022/03/14 03:19:03;;;;;;;;;;;6.90;99.90;;;;;;5083664;28;19923;-69
2022/03/14 03:21:30;;;;;;;;;;;6.80;99.90;;;;;;5084513;28;19916;-68
2022/03/14 03:23:56;;;;;;;;;;;6.80;99.90;;;;;;5083071;28;20011;-68
2022/03/14 03:26:21;;;;;;;;;;;6.80;99.90;;;;;;5084487;28;20023;-69
2022/03/14 03:28:47;;;;;;;;;;;6.80;99.90;;;;;;5084905;28;20000;-69
2022/03/14 03:31:16;;;;;;;;;;;6.80;99.90;;;;;;5084181;28;19924;-68
2022/03/14 03:33:43;;;;;;;;;;;6.80;99.90;;;;;;5081870;28;19946;-70
2022/03/14 03:36:08;;;;;;;;;;;6.80;99.90;;;;;;5084818;28;19919;-69
2022/03/14 03:38:34;;;;;;;;;;;6.80;99.90;;;;;;5080140;28;19922;-69
2022/03/14 03:40:59;;;;;;;;;;;6.80;99.90;;;;;;5083881;28;19922;-69
2022/03/14 03:43:25;;;;;;;;;;;6.80;99.90;;;;;;5082711;28;20003;-68
2022/03/14 03:45:51;;;;;;;;;;;6.80;99.90;;;;;;5084406;28;20026;-68
2022/03/14 03:48:16;;;;;;;;;;;6.80;99.90;;;;;;5083628;28;19920;-68
2022/03/14 03:50:42;;;;;;;;;;;6.70;99.90;;;;;;5084212;28;20360;-70
2022/03/14 03:53:07;;;;;;;;;;;6.70;99.90;;;;;;5086682;28;20498;-68
2022/03/14 03:55:34;;;;;;;;;;;6.70;99.90;;;;;;5087783;28;19912;-69
2022/03/14 03:57:59;;;;;;;;;;;6.70;99.90;;;;;;5089550;28;19924;-68
2022/03/14 04:00:25;;;;;;;;;;;6.70;99.90;;;;;;5085450;28;19916;-68
2022/03/14 04:02:50;;;;;;;;;;;6.70;99.90;;;;;;5085297;28;20285;-69
2022/03/14 04:05:17;;;;;;;;;;;6.70;99.90;;;;;;5085483;28;19971;-73
2022/03/14 04:07:43;;;;;;;;;;;6.70;99.90;;;;;;5084403;28;19955;-69
2022/03/14 04:10:12;;;;;;;;;;;6.70;99.90;;;;;;5088560;28;19970;-68
2022/03/14 04:12:39;;;;;;;;;;;6.70;99.90;;;;;;5086897;28;19920;-73
2022/03/14 04:15:09;;;;;;;;;;;6.70;99.90;;;;;;5087803;28;19923;-71
2022/03/14 04:17:35;;;;;;;;;;;6.60;99.90;;;;;;5087932;28;20296;-70
2022/03/14 04:20:02;;;;;;;;;;;6.70;99.90;;;;;;5086174;28;19935;-72
2022/03/14 04:22:28;;;;;;;;;;;6.70;99.90;;;;;;5088450;28;19984;-71
2022/03/14 04:24:53;;;;;;;;;;;6.60;99.90;;;;;;5087218;28;20428;-71
2022/03/14 04:27:19;;;;;;;;;;;6.70;99.90;;;;;;5087859;28;20415;-69
2022/03/14 04:29:45;;;;;;;;;;;6.60;99.90;;;;;;5086450;28;19924;-68
2022/03/14 04:32:10;;;;;;;;;;;6.60;99.90;;;;;;5085111;28;19991;-68
2022/03/14 04:34:36;;;;;;;;;;;6.60;99.90;;;;;;5087595;28;19959;-69
2022/03/14 04:37:01;;;;;;;;;;;6.60;99.90;;;;;;5085555;28;20411;-71
2022/03/14 04:39:28;;;;;;;;;;;6.60;99.90;;;;;;5087887;28;20303;-70
2022/03/14 04:41:54;;;;;;;;;;;6.60;99.90;;;;;;5087182;28;20011;-68
2022/03/14 04:44:21;;;;;;;;;;;6.60;99.90;;;;;;5087617;28;20276;-71
2022/03/14 04:46:47;;;;;;;;;;;6.60;99.90;;;;;;5086105;28;19963;-69
2022/03/14 04:49:13;;;;;;;;;;;6.70;99.90;;;;;;5088043;28;20398;-68
2022/03/14 04:51:39;;;;;;;;;;;6.70;99.90;;;;;;5086491;28;19965;-68
2022/03/14 04:54:05;;;;;;;;;;;6.70;99.90;;;;;;5087442;28;19924;-67
2022/03/14 04:56:30;;;;;;;;;;;6.60;99.90;;;;;;5087123;28;20334;-69
2022/03/14 04:58:55;;;;;;;;;;;6.60;99.90;;;;;;5087914;28;19916;-68
2022/03/14 05:01:23;;;;;;;;;;;6.60;99.90;;;;;;5086171;28;21004;-71
2022/03/14 05:03:49;;;;;;;;;;;6.60;99.90;;;;;;5086637;28;19916;-68
2022/03/14 05:06:16;;;;;;;;;;;6.70;99.90;;;;;;5084946;28;19973;-70
2022/03/14 05:08:42;;;;;;;;;;;6.70;99.90;;;;;;5085037;28;19920;-69
2022/03/14 05:11:11;;;;;;;;;;;6.70;99.90;;;;;;5080736;28;20299;-68
2022/03/14 05:13:37;;;;;;;;;;;6.70;99.90;;;;;;5086751;28;20455;-68
2022/03/14 05:16:02;;;;;;;;;;;6.70;99.90;;;;;;5086399;28;20328;-68
2022/03/14 05:18:28;;;;;;;;;;;6.60;99.90;;;;;;5086933;28;19923;-68
2022/03/14 05:20:53;;;;;;;;;;;6.50;99.90;;;;;;5085448;28;19965;-69
2022/03/14 05:23:19;;;;;;;;;;;6.60;99.90;;;;;;5082258;28;20593;-73
2022/03/14 05:25:44;;;;;;;;;;;6.60;99.90;;;;;;5085841;28;19967;-70
2022/03/14 05:28:10;;;;;;;;;;;6.60;99.90;;;;;;5086561;28;19916;-68
2022/03/14 05:30:36;;;;;;;;;;;6.60;99.90;;;;;;5084593;28;20406;-70
2022/03/14 05:33:01;;;;;;;;;;;6.50;99.90;;;;;;5085203;28;20506;-67
2022/03/14 05:35:27;;;;;;;;;;;6.50;99.90;;;;;;5082712;28;19923;-69
2022/03/14 05:37:53;;;;;;;;;;;6.40;99.90;;;;;;5082466;28;20372;-69
2022/03/14 05:40:20;;;;;;;;;;;6.40;99.90;;;;;;5083102;28;19924;-69
2022/03/14 05:42:47;;;;;;;;;;;6.40;99.90;;;;;;5085541;28;20479;-69
2022/03/14 05:45:13;;;;;;;;;;;6.40;99.90;;;;;;5084323;28;19926;-69
2022/03/14 05:47:39;;;;;;;;;;;6.30;99.90;;;;;;5084368;28;19920;-69
2022/03/14 05:50:05;;;;;;;;;;;6.30;99.90;;;;;;5084167;28;19916;-69
2022/03/14 05:52:30;;;;;;;;;;;6.30;99.90;;;;;;5082607;28;19985;-69
2022/03/14 05:54:56;;;;;;;;;;;6.20;99.90;;;;;;5081416;28;19916;-68
2022/03/14 05:57:22;;;;;;;;;;;6.30;99.90;;;;;;5080409;28;19924;-69
2022/03/14 05:59:50;;;;;;;;;;;6.30;99.90;;;;;;5085817;28;20746;-68
2022/03/14 06:02:22;;;;;;;;;;;6.20;99.90;;;;;;5083232;28;19949;-68
2022/03/14 06:04:52;;;;;;;;;;;6.30;99.90;;;;;;5083229;28;19977;-69
2022/03/14 06:07:19;;;;;;;;;;;6.20;99.90;;;;;;5077008;28;20042;-69
2022/03/14 06:09:45;;;;;;;;;;;6.20;99.90;;;;;;5085935;28;20032;-69
2022/03/14 06:12:11;;;;;;;;;;;6.20;99.90;;;;;;5082784;28;20528;-69
2022/03/14 06:14:36;;;;;;;;;;;6.10;99.90;;;;;;5079489;28;19962;-68
2022/03/14 06:17:02;;;;;;;;;;;6.10;99.90;;;;;;5080197;28;19960;-68
2022/03/14 06:19:27;;;;;;;;;;;6.10;99.90;;;;;;5084811;28;20009;-68
2022/03/14 06:21:53;;;;;;;;;;;6.10;99.90;;;;;;5084387;28;20011;-68
2022/03/14 06:24:18;;;;;;;;;;;6.00;99.90;;;;;;5084292;28;19916;-68
2022/03/14 06:26:44;;;;;;;;;;;6.10;99.90;;;;;;5084617;28;20543;-68
2022/03/14 06:29:10;;;;;;;;;;;6.10;99.90;;;;;;5085021;28;19968;-68
2022/03/14 06:31:36;;;;;;;;;;;6.00;99.90;;;;;;5082990;28;19920;-68
2022/03/14 06:34:01;;;;;;;;;;;6.00;99.90;;;;;;5084432;28;20060;-68
2022/03/14 06:36:28;;;;;;;;;;;5.90;99.90;;;;;;5081703;28;19934;-68
2022/03/14 06:38:56;;;;;;;;;;;6.00;99.90;;;;;;5080853;28;20010;-68
2022/03/14 06:41:22;;;;;;;;;;;6.00;99.90;;;;;;5082847;28;19930;-68
2022/03/14 06:43:48;;;;;;;;;;;5.90;99.90;;;;;;5072891;28;19970;-68
2022/03/14 06:46:13;;;;;;;;;;;5.80;99.90;;;;;;5074286;28;19927;-68
2022/03/14 06:48:40;;;;;;;;;;;5.90;99.90;;;;;;5074827;28;19947;-68
2022/03/14 06:51:06;;;;;;;;;;;5.90;99.90;;;;;;5067761;28;19920;-68
2022/03/14 06:53:32;;;;;;;;;;;5.90;99.90;;;;;;5081222;28;20415;-68
2022/03/14 06:55:58;;;;;;;;;;;5.90;99.90;;;;;;5084903;28;19916;-69
2022/03/14 06:58:24;;;;;;;;;;;5.90;99.90;;;;;;5084006;28;19916;-68
2022/03/14 07:00:49;;;;;;;;;;;5.90;99.90;;;;;;5078123;28;19916;-68
2022/03/14 07:03:16;;;;;;;;;;;5.80;99.90;;;;;;5079010;28;20003;-69
2022/03/14 07:05:41;;;;;;;;;;;5.80;99.90;;;;;;5064560;28;19966;-68
2022/03/14 07:08:09;;;;;;;;;;;5.80;99.90;;;;;;5075672;28;19916;-68
2022/03/14 07:10:34;;;;;;;;;;;5.80;99.90;;;;;;5063857;28;19924;-68
2022/03/14 07:13:00;;;;;;;;;;;5.80;99.90;;;;;;5064725;28;20418;-68
2022/03/14 07:15:25;;;;;;;;;;;5.80;99.90;;;;;;5062461;28;19917;-68
2022/03/14 07:17:51;;;;;;;;;;;5.90;99.90;;;;;;5063889;28;20439;-69
2022/03/14 07:20:18;;;;;;;;;;;5.80;99.90;;;;;;5063901;28;19916;-68
2022/03/14 07:22:48;;;;;;;;;;;5.90;99.90;;;;;;5076389;28;19947;-69
2022/03/14 07:25:13;;;;;;;;;;;5.90;99.90;;;;;;5076012;28;19926;-69
2022/03/14 07:27:39;;;;;;;;;;;5.90;99.90;;;;;;5084423;28;19920;-69
2022/03/14 07:30:05;;;;;;;;;;;5.90;99.90;;;;;;5087515;28;19924;-68
2022/03/14 07:32:30;;;;;;;;;;;6.00;99.90;;;;;;5088671;28;20007;-68
2022/03/14 07:34:57;;;;;;;;;;;6.00;99.90;;;;;;5087982;28;19931;-68
2022/03/14 07:37:22;;;;;;;;;;;6.10;99.90;;;;;;5084878;28;19994;-68
2022/03/14 07:39:48;;;;;;;;;;;6.10;99.90;;;;;;5088681;28;19924;-68
2022/03/14 07:42:14;;;;;;;;;;;6.20;99.90;;;;;;5087870;28;19981;-68
2022/03/14 07:44:39;;;;;;;;;;;6.40;99.90;;;;;;5080230;28;19963;-69
2022/03/14 07:47:10;;;;;;;;;;;6.40;99.90;;;;;;5082128;28;20302;-68
2022/03/14 07:49:36;;;;;;;;;;;6.40;99.90;;;;;;5089185;28;19916;-68
2022/03/14 07:52:02;;;;;;;;;;;6.50;99.90;;;;;;5080914;28;19943;-68
2022/03/14 07:54:28;;;;;;;;;;;6.50;99.90;;;;;;5082146;28;20007;-68
2022/03/14 07:56:53;;;;;;;;;;;6.50;99.90;;;;;;5087847;28;19973;-68
2022/03/14 07:59:19;;;;;;;;;;;6.50;99.90;;;;;;5088053;28;20311;-69
2022/03/14 08:01:45;;;;;;;;;;;6.50;99.90;;;;;;5083804;28;19927;-68
2022/03/14 08:04:10;;;;;;;;;;;6.60;99.90;;;;;;5082173;28;20554;-67
2022/03/14 08:06:41;;;;;;;;;;;6.60;99.90;;;;;;5085717;28;19919;-67
2022/03/14 08:09:07;;;;;;;;;;;6.60;99.90;;;;;;5082641;28;20436;-68
2022/03/14 08:11:33;;;;;;;;;;;6.70;99.90;;;;;;5087236;28;20011;-67
2022/03/14 08:13:58;;;;;;;;;;;6.80;99.90;;;;;;5087174;28;20010;-67
2022/03/14 08:16:24;;;;;;;;;;;6.80;99.90;;;;;;5087375;28;20568;-67
2022/03/14 08:18:51;;;;;;;;;;;6.70;99.90;;;;;;5088142;28;19923;-68
2022/03/14 08:21:16;;;;;;;;;;;6.80;99.90;;;;;;5087711;28;19916;-67
2022/03/14 08:23:41;;;;;;;;;;;6.80;99.90;;;;;;5086846;28;19927;-67
2022/03/14 08:26:07;;;;;;;;;;;6.80;99.90;;;;;;5084874;28;19950;-68
2022/03/14 08:28:34;;;;;;;;;;;6.80;99.90;;;;;;5078916;28;19927;-68
2022/03/14 08:31:00;;;;;;;;;;;6.80;99.90;;;;;;5086588;28;19922;-67
2022/03/14 08:33:29;;;;;;;;;;;6.80;99.90;;;;;;5085422;28;19916;-67
2022/03/14 08:35:59;;;;;;;;;;;6.90;99.90;;;;;;5076898;28;19920;-68
2022/03/14 08:38:25;;;;;;;;;;;6.90;99.90;;;;;;5080242;28;20210;-68
2022/03/14 08:40:53;;;;;;;;;;;6.90;99.90;;;;;;5084458;28;19950;-68
2022/03/14 08:43:19;;;;;;;;;;;7.00;99.90;;;;;;5085498;28;20398;-68
2022/03/14 08:45:45;;;;;;;;;;;7.00;99.90;;;;;;5086390;28;19959;-68
2022/03/14 08:48:11;;;;;;;;;;;7.10;99.90;;;;;;5086089;28;20842;-68
2022/03/14 08:50:38;;;;;;;;;;;7.00;99.90;;;;;;5087314;28;19916;-68
2022/03/14 08:53:04;;;;;;;;;;;7.10;99.90;;;;;;5086639;28;20007;-68
2022/03/14 08:55:30;;;;;;;;;;;7.00;99.90;;;;;;5086441;28;19916;-68
2022/03/14 08:57:56;;;;;;;;;;;7.10;99.90;;;;;;5086442;28;19916;-68
2022/03/14 09:00:25;;;;;;;;;;;7.10;99.90;;;;;;5081248;28;19924;-68
2022/03/14 09:02:51;;;;;;;;;;;7.20;99.90;;;;;;5086626;28;19964;-68
2022/03/14 09:05:17;;;;;;;;;;;7.20;99.90;;;;;;5068876;28;19920;-68
2022/03/14 09:07:43;;;;;;;;;;;7.20;99.90;;;;;;5079249;28;19952;-68
2022/03/14 09:10:12;;;;;;;;;;;7.20;99.90;;;;;;5086255;28;19955;-68
2022/03/14 09:12:39;;;;;;;;;;;7.20;99.90;;;;;;5086855;28;19920;-68
2022/03/14 09:15:07;;;;;;;;;;;7.30;99.90;;;;;;5085563;28;19916;-68
2022/03/14 09:17:56;;;;;;;;;;;7.20;99.90;;;;;;5086570;28;20391;-68
2022/03/14 09:20:23;;;;;;;;;;;7.20;99.90;;;;;;5086256;28;20410;-68
2022/03/14 09:22:51;;;;;;;;;;;7.20;99.90;;;;;;5087061;28;20149;-68
2022/03/14 09:25:19;;;;;;;;;;;7.30;99.90;;;;;;5086049;28;20003;-68
2022/03/14 09:27:45;;;;;;;;;;;7.40;99.90;;;;;;5086336;28;19970;-68
2022/03/14 09:30:12;;;;;;;;;;;7.50;99.90;;;;;;5084766;28;19923;-68
2022/03/14 09:32:40;;;;;;;;;;;7.50;99.90;;;;;;5076521;28;20049;-68
2022/03/14 09:35:07;;;;;;;;;;;7.50;99.90;;;;;;5080646;28;19927;-68
2022/03/14 09:37:34;;;;;;;;;;;7.50;99.90;;;;;;5076304;28;20451;-68
2022/03/14 09:40:00;;;;;;;;;;;7.50;99.90;;;;;;5086017;28;19916;-68
2022/03/14 09:42:26;;;;;;;;;;;7.50;99.90;;;;;;5086321;28;20004;-68
2022/03/14 09:44:54;;;;;;;;;;;7.50;99.90;;;;;;5086587;28;20337;-68
2022/03/14 09:47:23;;;;;;;;;;;7.50;99.90;;;;;;5084205;28;20022;-68
2022/03/14 09:49:51;;;;;;;;;;;7.50;99.90;;;;;;5085882;28;20006;-68
2022/03/14 09:52:18;;;;;;;;;;;7.60;99.90;;;;;;5072733;28;19947;-67
2022/03/14 09:54:44;;;;;;;;;;;7.60;99.90;;;;;;5074612;28;19915;-68
2022/03/14 09:57:10;;;;;;;;;;;7.70;99.90;;;;;;5085873;28;19920;-68
2022/03/14 09:59:36;;;;;;;;;;;7.70;99.90;;;;;;5085061;28;20447;-68
2022/03/14 10:02:01;;;;;;;;;;;7.80;99.90;;;;;;5085249;28;19916;-68
2022/03/14 10:04:27;;;;;;;;;;;7.80;99.90;;;;;;5081442;28;19927;-68
2022/03/14 10:06:52;;;;;;;;;;;7.70;99.90;;;;;;5085651;28;19931;-69
2022/03/14 10:09:18;;;;;;;;;;;7.70;99.90;;;;;;5085857;28;19924;-68
2022/03/14 10:11:44;;;;;;;;;;;7.80;99.90;;;;;;5086029;28;19919;-67
2022/03/14 10:14:11;;;;;;;;;;;7.80;99.90;;;;;;5085548;28;19923;-68
2022/03/14 10:16:37;;;;;;;;;;;7.80;99.90;;;;;;5085929;28;19916;-67
2022/03/14 10:19:07;;;;;;;;;;;7.80;99.90;;;;;;5086462;28;19942;-68
2022/03/14 10:21:34;;;;;;;;;;;7.90;99.90;;;;;;5064617;28;19920;-68
2022/03/14 10:24:20;;;;;;;;;;;7.90;99.90;;;;;;5068152;28;20391;-68
2022/03/14 10:26:46;;;;;;;;;;;7.90;99.90;;;;;;5079239;28;20429;-67
2022/03/14 10:29:13;;;;;;;;;;;7.90;99.90;;;;;;5083989;28;19923;-67
2022/03/14 10:31:40;;;;;;;;;;;7.90;99.90;;;;;;5085300;28;20367;-67
2022/03/14 10:34:11;;;;;;;;;;;8.10;99.90;;;;;;5085733;28;19920;-67
2022/03/14 10:36:46;;;;;;;;;;;8.20;99.90;;;;;;5083658;28;19922;-68
2022/03/14 10:39:13;;;;;;;;;;;8.30;99.90;;;;;;5083432;28;20523;-68
2022/03/14 10:41:39;;;;;;;;;;;8.20;99.90;;;;;;5085224;28;20295;-68
2022/03/14 10:44:05;;;;;;;;;;;8.10;99.90;;;;;;5084807;28;19944;-68
2022/03/14 10:46:31;;;;;;;;;;;8.20;99.90;;;;;;5085029;28;19920;-68
2022/03/14 10:48:56;;;;;;;;;;;8.20;99.90;;;;;;5085486;28;19916;-67
2022/03/14 10:51:22;;;;;;;;;;;8.20;99.90;;;;;;5084939;28;19920;-67
2022/03/14 10:53:48;;;;;;;;;;;8.20;99.90;;;;;;5081470;28;19922;-68
2022/03/14 10:56:14;;;;;;;;;;;8.30;99.90;;;;;;5084433;28;19920;-67
2022/03/14 10:58:40;;;;;;;;;;;8.20;99.90;;;;;;5082233;28;19923;-68
2022/03/14 11:01:10;;;;;;;;;;;8.20;99.90;;;;;;5081391;28;20012;-67
2022/03/14 11:03:36;;;;;;;;;;;8.30;99.90;;;;;;5083163;28;20346;-68
2022/03/14 11:06:03;;;;;;;;;;;8.40;99.90;;;;;;5082440;28;20031;-68
2022/03/14 11:08:33;;;;;;;;;;;8.50;99.90;;;;;;5083560;28;19924;-68
2022/03/14 11:11:01;;;;;;;;;;;8.30;99.90;;;;;;5082797;28;19986;-69
2022/03/14 11:13:26;;;;;;;;;;;8.20;99.90;;;;;;5077688;28;20079;-68
2022/03/14 11:15:52;;;;;;;;;;;8.10;99.90;;;;;;5076252;28;19916;-67
2022/03/14 11:18:19;;;;;;;;;;;8.00;99.90;;;;;;5077762;28;19920;-67
2022/03/14 11:20:45;;;;;;;;;;;7.90;99.90;;;;;;5072486;28;20560;-68
2022/03/14 11:23:12;;;;;;;;;;;8.00;99.90;;;;;;5084333;28;20375;-68
2022/03/14 11:25:40;;;;;;;;;;;7.90;99.90;;;;;;5080905;28;19920;-68
2022/03/14 11:28:06;;;;;;;;;;;7.90;99.90;;;;;;5081828;28;19924;-68
2022/03/14 11:30:35;;;;;;;;;;;8.00;99.90;;;;;;5082788;28;19943;-68
2022/03/14 11:33:02;;;;;;;;;;;8.10;99.90;;;;;;5078956;28;19946;-67
2022/03/14 11:35:27;;;;;;;;;;;8.20;99.90;;;;;;5081572;28;20442;-67
2022/03/14 11:37:55;;;;;;;;;;;8.40;99.90;;;;;;5077499;28;19923;-67
2022/03/14 11:40:21;;;;;;;;;;;8.50;99.90;;;;;;5084499;28;20619;-67
2022/03/14 11:42:47;;;;;;;;;;;8.50;99.90;;;;;;5066127;28;19998;-68
2022/03/14 11:45:13;;;;;;;;;;;8.60;99.90;;;;;;5084430;28;20019;-68
2022/03/14 11:47:38;;;;;;;;;;;8.60;99.90;;;;;;5084041;28;20027;-68
2022/03/14 11:50:04;;;;;;;;;;;8.60;99.90;;;;;;5084622;28;19960;-67
2022/03/14 11:52:40;;;;;;;;;;;8.60;99.90;;;;;;5070630;28;19966;-67
2022/03/14 11:55:27;;;;;;;;;;;8.50;99.90;;;;;;5063904;28;19920;-68
2022/03/14 11:57:52;;;;;;;;;;;8.40;99.90;;;;;;5081951;28;19969;-68
2022/03/14 12:00:21;;;;;;;;;;;8.50;99.90;;;;;;5085343;28;20462;-68
2022/03/14 12:02:48;;;;;;;;;;;8.50;99.90;;;;;;5084324;28;19920;-67
2022/03/14 12:05:13;;;;;;;;;;;8.50;99.90;;;;;;5081857;28;19984;-67
2022/03/14 12:07:39;;;;;;;;;;;8.30;99.90;;;;;;5076693;28;19985;-68
2022/03/14 12:10:23;;;;;;;;;;;8.20;99.90;;;;;;5084770;28;20418;-67
2022/03/14 12:12:50;;;;;;;;;;;8.10;99.90;;;;;;5083647;28;19920;-68
2022/03/14 12:15:37;;;;;;;;;;;8.10;99.90;;;;;;5087603;28;19998;-68
2022/03/14 12:18:28;;;;;;;;;;;8.10;99.90;;;;;;5087113;28;20007;-68
2022/03/14 12:20:53;;;;;;;;;;;8.00;99.90;;;;;;5088205;28;19923;-68
2022/03/14 12:23:23;;;;;;;;;;;7.90;99.90;;;;;;5088310;28;19920;-67
2022/03/14 12:25:48;;;;;;;;;;;7.80;99.90;;;;;;5087718;28;19935;-67
2022/03/14 12:28:23;;;;;;;;;;;7.80;99.90;;;;;;5087417;28;19920;-68
2022/03/14 12:30:48;;;;;;;;;;;7.70;99.90;;;;;;5083221;28;19920;-67
2022/03/14 12:33:29;;;;;;;;;;;7.70;99.90;;;;;;5087255;28;20046;-68
2022/03/14 12:35:54;;;;;;;;;;;7.60;99.90;;;;;;5087984;28;19916;-67
2022/03/14 12:38:22;;;;;;;;;;;7.60;99.90;;;;;;5083308;28;19977;-68
2022/03/14 12:40:48;;;;;;;;;;;7.60;99.90;;;;;;5087211;28;19919;-69
2022/03/14 12:43:21;;;;;;;;;;;7.70;99.90;;;;;;5086962;28;20628;-69
2022/03/14 12:45:47;;;;;;;;;;;7.70;99.90;;;;;;5081298;28;19959;-68
2022/03/14 12:48:24;;;;;;;;;;;7.60;99.90;;;;;;5087634;28;19924;-69
2022/03/14 12:50:49;;;;;;;;;;;7.70;99.90;;;;;;5086954;28;19916;-70
2022/03/14 12:53:27;;;;;;;;;;;7.70;99.90;;;;;;5083105;28;19982;-69
2022/03/14 12:55:54;;;;;;;;;;;7.80;99.90;;;;;;5086178;28;19916;-70
2022/03/14 12:58:21;;;;;;;;;;;7.90;99.90;;;;;;5085169;28;19950;-72
2022/03/14 13:00:47;;;;;;;;;;;8.10;99.90;;;;;;5083917;28;19951;-70
2022/03/14 13:03:23;;;;;;;;;;;8.20;99.90;;;;;;5085415;28;19954;-69
2022/03/14 13:05:50;;;;;;;;;;;8.20;99.90;;;;;;5083598;28;19967;-69
2022/03/14 13:08:15;;;;;;;;;;;8.30;99.90;;;;;;5083761;28;19956;-68
2022/03/14 13:10:41;;;;;;;;;;;8.30;99.90;;;;;;5086919;28;19947;-66
2022/03/14 13:13:10;;;;;;;;;;;8.40;99.90;;;;;;5086573;28;20414;-67
2022/03/14 13:15:37;;;;;;;;;;;8.40;99.90;;;;;;5079574;28;19943;-67
2022/03/14 13:18:14;;;;;;;;;;;8.40;99.90;;;;;;5084756;28;19969;-67
2022/03/14 13:20:39;;;;;;;;;;;8.50;99.90;;;;;;5068584;28;19920;-68
2022/03/14 13:23:12;;;;;;;;;;;8.50;99.90;;;;;;5086289;28;19973;-68
2022/03/14 13:25:43;;;;;;;;;;;8.50;99.90;;;;;;5084524;28;19924;-67
2022/03/14 13:28:11;;;;;;;;;;;8.50;99.90;;;;;;5086327;28;19931;-67
2022/03/14 13:30:43;;;;;;;;;;;8.50;99.90;;;;;;5085421;28;19920;-67
2022/03/14 13:33:16;;;;;;;;;;;8.50;99.90;;;;;;5086618;28;20519;-67
2022/03/14 13:35:43;;;;;;;;;;;8.70;99.90;;;;;;5084095;28;19926;-68
2022/03/14 13:38:09;;;;;;;;;;;8.70;99.90;;;;;;5081992;28;20442;-67
2022/03/14 13:40:41;;;;;;;;;;;8.70;99.90;;;;;;5086429;28;19923;-68
2022/03/14 13:43:07;;;;;;;;;;;8.70;99.90;;;;;;5085709;28;20007;-67
2022/03/14 13:45:32;;;;;;;;;;;8.70;99.90;;;;;;5086204;28;20053;-68
2022/03/14 13:47:58;;;;;;;;;;;8.70;99.90;;;;;;5086019;28;20000;-68
2022/03/14 13:50:26;;;;;;;;;;;8.70;99.90;;;;;;5086665;28;19916;-68
2022/03/14 13:52:52;;;;;;;;;;;8.70;99.90;;;;;;5086065;28;19916;-67
2022/03/14 13:55:18;;;;;;;;;;;8.90;99.90;;;;;;5085734;28;20466;-68
2022/03/14 13:57:47;;;;;;;;;;;8.80;99.90;;;;;;5085334;28;19920;-67
2022/03/14 14:00:13;;;;;;;;;;;8.80;99.90;;;;;;5082635;28;19923;-67
2022/03/14 14:02:39;;;;;;;;;;;8.90;99.90;;;;;;5085903;28;19916;-68
2022/03/14 14:05:09;;;;;;;;;;;9.00;99.90;;;;;;5085046;28;19916;-68
2022/03/14 14:07:35;;;;;;;;;;;9.20;99.90;;;;;;5074201;28;19931;-67
2022/03/14 14:10:09;;;;;;;;;;;9.30;99.90;;;;;;5084735;28;20347;-67